sensor_id;sensor_type;location;lat;lon;timestamp;pressure;altitude;pressure_sealevel;temperature;humidity
54146;BME280;40052;49.422;7.738;2022-09-21T00:00:44;75715.75;;;-145.25;82.04
54146;BME280;40052;49.422;7.738;2022-09-21T00:03:13;75711.75;;;-145.25;83.25
54146;BME280;40052;49.422;7.738;2022-09-21T00:05:39;75711.75;;;-145.25;83.15
54146;BME280;40052;49.422;7.738;2022-09-21T00:08:07;75713.75;;;-145.25;82.64
54146;BME280;40052;49.422;7.738;2022-09-21T00:10:34;75731.78;;;-145.25;83.14
54146;BME280;40052;49.422;7.738;2022-09-21T00:12:59;75735.78;;;-145.25;83.09
54146;BME280;40052;49.422;7.738;2022-09-21T00:15:28;75743.81;;;-145.25;83.24
54146;BME280;40052;49.422;7.738;2022-09-21T00:17:55;75741.81;;;-145.25;83.06
54146;BME280;40052;49.422;7.738;2022-09-21T00:20:25;75739.81;;;-145.25;82.49
54146;BME280;40052;49.422;7.738;2022-09-21T00:22:50;75733.78;;;-145.25;82.62
54146;BME280;40052;49.422;7.738;2022-09-21T00:25:16;75727.78;;;-145.25;82.23
54146;BME280;40052;49.422;7.738;2022-09-21T00:27:44;75737.78;;;-145.25;82.19
54146;BME280;40052;49.422;7.738;2022-09-21T00:30:12;75745.81;;;-145.25;82.17
54146;BME280;40052;49.422;7.738;2022-09-21T00:32:41;75751.81;;;-145.25;80.13
54146;BME280;40052;49.422;7.738;2022-09-21T00:35:07;75771.88;;;-145.25;79.69
54146;BME280;40052;49.422;7.738;2022-09-21T00:37:36;75773.88;;;-145.25;80.77
54146;BME280;40052;49.422;7.738;2022-09-21T00:40:02;75797.94;;;-145.25;81.97
54146;BME280;40052;49.422;7.738;2022-09-21T00:42:30;75817.97;;;-145.25;83.16
54146;BME280;40052;49.422;7.738;2022-09-21T00:44:55;75813.97;;;-145.25;83.22
54146;BME280;40052;49.422;7.738;2022-09-21T00:47:43;75809.97;;;-145.25;82.56
54146;BME280;40052;49.422;7.738;2022-09-21T00:50:16;75809.97;;;-145.25;83.03
54146;BME280;40052;49.422;7.738;2022-09-21T00:52:46;75811.97;;;-145.25;83.31
54146;BME280;40052;49.422;7.738;2022-09-21T00:55:21;75811.97;;;-145.25;83.55
54146;BME280;40052;49.422;7.738;2022-09-21T00:57:50;75817.97;;;-145.25;83.01
54146;BME280;40052;49.422;7.738;2022-09-21T01:00:18;75815.97;;;-145.25;83.39
54146;BME280;40052;49.422;7.738;2022-09-21T01:02:44;75834.00;;;-145.25;83.42
54146;BME280;40052;49.422;7.738;2022-09-21T01:05:10;75828.00;;;-145.25;83.37
54146;BME280;40052;49.422;7.738;2022-09-21T01:07:39;75848.03;;;-145.25;83.29
54146;BME280;40052;49.422;7.738;2022-09-21T01:10:12;75852.06;;;-145.25;83.63
54146;BME280;40052;49.422;7.738;2022-09-21T01:12:45;75858.06;;;-145.25;83.89
54146;BME280;40052;49.422;7.738;2022-09-21T01:15:15;75864.09;;;-145.25;84.01
54146;BME280;40052;49.422;7.738;2022-09-21T01:20:31;75862.06;;;-145.25;83.56
54146;BME280;40052;49.422;7.738;2022-09-21T01:31:12;75846.03;;;-145.25;82.97
54146;BME280;40052;49.422;7.738;2022-09-21T01:33:44;75854.06;;;-145.25;82.81
54146;BME280;40052;49.422;7.738;2022-09-21T01:36:17;75850.06;;;-145.25;83.16
54146;BME280;40052;49.422;7.738;2022-09-21T01:38:48;75860.06;;;-145.25;82.39
54146;BME280;40052;49.422;7.738;2022-09-21T01:41:17;75870.09;;;-145.25;82.28
54146;BME280;40052;49.422;7.738;2022-09-21T01:43:56;75888.13;;;-145.25;82.80
54146;BME280;40052;49.422;7.738;2022-09-21T01:46:28;75894.16;;;-145.25;83.40
54146;BME280;40052;49.422;7.738;2022-09-21T01:48:58;75896.16;;;-145.25;83.86
54146;BME280;40052;49.422;7.738;2022-09-21T01:51:30;75912.19;;;-145.25;84.58
54146;BME280;40052;49.422;7.738;2022-09-21T01:54:51;75926.22;;;-145.25;85.01
54146;BME280;40052;49.422;7.738;2022-09-21T02:00:33;75930.22;;;-145.25;84.10
54146;BME280;40052;49.422;7.738;2022-09-21T02:03:07;75944.25;;;-145.25;83.29
54146;BME280;40052;49.422;7.738;2022-09-21T02:05:34;75928.22;;;-145.25;82.75
54146;BME280;40052;49.422;7.738;2022-09-21T02:08:00;75916.19;;;-145.25;83.00
54146;BME280;40052;49.422;7.738;2022-09-21T02:10:34;75924.22;;;-145.25;82.88
54146;BME280;40052;49.422;7.738;2022-09-21T02:13:02;75938.25;;;-145.25;83.31
54146;BME280;40052;49.422;7.738;2022-09-21T02:21:28;75942.25;;;-145.25;80.96
54146;BME280;40052;49.422;7.738;2022-09-21T02:26:52;75926.22;;;-145.25;81.62
54146;BME280;40052;49.422;7.738;2022-09-21T02:37:50;75956.28;;;-145.25;82.91
54146;BME280;40052;49.422;7.738;2022-09-21T02:40:34;75966.31;;;-145.25;82.73
54146;BME280;40052;49.422;7.738;2022-09-21T02:43:11;75960.31;;;-145.25;82.84
54146;BME280;40052;49.422;7.738;2022-09-21T02:45:48;75976.34;;;-145.25;83.08
54146;BME280;40052;49.422;7.738;2022-09-21T02:48:23;75978.34;;;-145.25;83.44
54146;BME280;40052;49.422;7.738;2022-09-21T02:50:54;75984.34;;;-145.25;82.54
54146;BME280;40052;49.422;7.738;2022-09-21T02:53:32;75988.38;;;-145.25;82.25
54146;BME280;40052;49.422;7.738;2022-09-21T02:56:01;75994.38;;;-145.25;82.72
54146;BME280;40052;49.422;7.738;2022-09-21T02:58:30;75998.38;;;-145.25;83.29
54146;BME280;40052;49.422;7.738;2022-09-21T03:00:56;76000.41;;;-145.25;83.61
54146;BME280;40052;49.422;7.738;2022-09-21T03:03:23;76006.41;;;-145.25;83.53
54146;BME280;40052;49.422;7.738;2022-09-21T03:05:53;75996.38;;;-145.25;83.61
54146;BME280;40052;49.422;7.738;2022-09-21T03:08:21;75986.38;;;-145.25;83.22
54146;BME280;40052;49.422;7.738;2022-09-21T03:10:48;75994.38;;;-145.25;82.93
54146;BME280;40052;49.422;7.738;2022-09-21T03:13:19;75984.34;;;-145.25;82.89
54146;BME280;40052;49.422;7.738;2022-09-21T03:15:47;75982.34;;;-145.25;82.26
54146;BME280;40052;49.422;7.738;2022-09-21T03:18:13;75984.34;;;-145.25;82.38
54146;BME280;40052;49.422;7.738;2022-09-21T03:20:42;75982.34;;;-145.25;82.06
54146;BME280;40052;49.422;7.738;2022-09-21T03:23:10;76000.41;;;-145.25;82.44
54146;BME280;40052;49.422;7.738;2022-09-21T03:25:36;76000.41;;;-145.25;82.39
54146;BME280;40052;49.422;7.738;2022-09-21T03:28:02;75996.38;;;-145.25;82.38
54146;BME280;40052;49.422;7.738;2022-09-21T03:30:30;75988.38;;;-145.25;81.99
54146;BME280;40052;49.422;7.738;2022-09-21T03:32:59;75990.38;;;-145.25;81.52
54146;BME280;40052;49.422;7.738;2022-09-21T03:35:24;76014.44;;;-145.25;82.04
54146;BME280;40052;49.422;7.738;2022-09-21T03:37:50;76024.44;;;-145.25;82.80
54146;BME280;40052;49.422;7.738;2022-09-21T03:40:16;76034.47;;;-145.25;83.26
54146;BME280;40052;49.422;7.738;2022-09-21T03:42:43;76026.44;;;-145.25;83.79
54146;BME280;40052;49.422;7.738;2022-09-21T03:45:11;76040.50;;;-145.25;83.74
54146;BME280;40052;49.422;7.738;2022-09-21T03:47:38;76060.53;;;-145.25;83.94
54146;BME280;40052;49.422;7.738;2022-09-21T03:50:06;76064.53;;;-145.25;84.22
54146;BME280;40052;49.422;7.738;2022-09-21T03:52:32;76056.53;;;-145.25;83.71
54146;BME280;40052;49.422;7.738;2022-09-21T03:55:02;76058.53;;;-145.25;83.27
54146;BME280;40052;49.422;7.738;2022-09-21T03:57:29;76058.53;;;-145.25;81.58
54146;BME280;40052;49.422;7.738;2022-09-21T03:59:54;76042.50;;;-145.25;80.95
54146;BME280;40052;49.422;7.738;2022-09-21T04:02:22;76056.53;;;-145.25;80.33
54146;BME280;40052;49.422;7.738;2022-09-21T04:04:48;76062.53;;;-145.25;80.36
54146;BME280;40052;49.422;7.738;2022-09-21T04:07:13;76072.56;;;-145.25;81.85
54146;BME280;40052;49.422;7.738;2022-09-21T04:09:41;76072.56;;;-145.25;82.38
54146;BME280;40052;49.422;7.738;2022-09-21T04:12:06;76090.59;;;-145.25;83.25
54146;BME280;40052;49.422;7.738;2022-09-21T04:14:34;76100.63;;;-145.25;82.97
54146;BME280;40052;49.422;7.738;2022-09-21T04:17:00;76094.63;;;-145.25;82.65
54146;BME280;40052;49.422;7.738;2022-09-21T04:19:28;76096.63;;;-145.25;82.49
54146;BME280;40052;49.422;7.738;2022-09-21T04:21:53;76114.66;;;-145.25;83.75
54146;BME280;40052;49.422;7.738;2022-09-21T04:24:22;76120.66;;;-145.25;84.00
54146;BME280;40052;49.422;7.738;2022-09-21T04:26:48;76116.66;;;-145.25;84.23
54146;BME280;40052;49.422;7.738;2022-09-21T04:29:14;76116.66;;;-145.25;84.49
54146;BME280;40052;49.422;7.738;2022-09-21T04:31:41;76128.69;;;-145.25;84.76
54146;BME280;40052;49.422;7.738;2022-09-21T04:34:11;76142.72;;;-145.25;85.14
54146;BME280;40052;49.422;7.738;2022-09-21T04:36:41;76140.72;;;-145.25;84.62
54146;BME280;40052;49.422;7.738;2022-09-21T04:39:07;76138.72;;;-145.25;84.14
54146;BME280;40052;49.422;7.738;2022-09-21T04:41:33;76122.69;;;-145.25;83.92
54146;BME280;40052;49.422;7.738;2022-09-21T04:44:03;76128.69;;;-145.25;83.96
54146;BME280;40052;49.422;7.738;2022-09-21T04:46:31;76136.72;;;-145.25;84.23
54146;BME280;40052;49.422;7.738;2022-09-21T04:48:58;76132.69;;;-145.25;84.65
54146;BME280;40052;49.422;7.738;2022-09-21T04:51:24;76116.66;;;-145.25;84.03
54146;BME280;40052;49.422;7.738;2022-09-21T04:53:49;76128.69;;;-145.25;84.02
54146;BME280;40052;49.422;7.738;2022-09-21T04:56:15;76138.72;;;-145.25;84.29
54146;BME280;40052;49.422;7.738;2022-09-21T04:58:44;76144.72;;;-145.25;84.75
54146;BME280;40052;49.422;7.738;2022-09-21T05:01:09;76148.75;;;-145.25;84.80
54146;BME280;40052;49.422;7.738;2022-09-21T05:03:38;76158.75;;;-145.25;84.82
54146;BME280;40052;49.422;7.738;2022-09-21T05:06:03;76162.78;;;-145.25;84.36
54146;BME280;40052;49.422;7.738;2022-09-21T05:08:34;76162.78;;;-145.25;84.00
54146;BME280;40052;49.422;7.738;2022-09-21T05:11:18;76160.78;;;-145.25;84.42
54146;BME280;40052;49.422;7.738;2022-09-21T05:13:46;76176.81;;;-145.25;84.88
54146;BME280;40052;49.422;7.738;2022-09-21T05:16:17;76180.81;;;-145.25;85.44
54146;BME280;40052;49.422;7.738;2022-09-21T05:18:43;76180.81;;;-145.25;84.98
54146;BME280;40052;49.422;7.738;2022-09-21T05:21:13;76178.81;;;-145.25;83.89
54146;BME280;40052;49.422;7.738;2022-09-21T05:23:39;76166.78;;;-145.25;83.70
54146;BME280;40052;49.422;7.738;2022-09-21T05:26:04;76152.75;;;-145.25;82.96
54146;BME280;40052;49.422;7.738;2022-09-21T05:28:32;76142.72;;;-145.25;82.41
54146;BME280;40052;49.422;7.738;2022-09-21T05:33:50;76156.75;;;-145.25;82.63
54146;BME280;40052;49.422;7.738;2022-09-21T05:39:12;76172.78;;;-145.25;84.23
54146;BME280;40052;49.422;7.738;2022-09-21T05:41:40;76164.78;;;-145.25;84.39
54146;BME280;40052;49.422;7.738;2022-09-21T05:44:08;76158.75;;;-145.25;84.32
54146;BME280;40052;49.422;7.738;2022-09-21T05:51:51;76132.69;;;-145.25;83.82
54146;BME280;40052;49.422;7.738;2022-09-21T05:57:03;76148.75;;;-145.25;83.61
54146;BME280;40052;49.422;7.738;2022-09-21T06:05:21;76184.81;;;-145.25;83.14
54146;BME280;40052;49.422;7.738;2022-09-21T06:07:47;76180.81;;;-145.25;83.53
54146;BME280;40052;49.422;7.738;2022-09-21T06:10:12;76174.81;;;-145.25;83.92
54146;BME280;40052;49.422;7.738;2022-09-21T06:12:41;76170.78;;;-145.25;83.73
54146;BME280;40052;49.422;7.738;2022-09-21T06:15:10;76164.78;;;-145.25;84.12
54146;BME280;40052;49.422;7.738;2022-09-21T06:17:36;76152.75;;;-145.25;83.70
54146;BME280;40052;49.422;7.738;2022-09-21T06:20:04;76138.72;;;-145.25;83.84
54146;BME280;40052;49.422;7.738;2022-09-21T06:22:33;76136.72;;;-145.25;83.61
54146;BME280;40052;49.422;7.738;2022-09-21T06:25:01;76130.69;;;-145.25;83.56
54146;BME280;40052;49.422;7.738;2022-09-21T06:27:32;76116.66;;;-145.25;83.66
54146;BME280;40052;49.422;7.738;2022-09-21T06:29:59;76104.63;;;-145.25;83.58
54146;BME280;40052;49.422;7.738;2022-09-21T06:32:27;76100.63;;;-145.25;83.17
54146;BME280;40052;49.422;7.738;2022-09-21T06:34:52;76102.63;;;-145.25;83.45
54146;BME280;40052;49.422;7.738;2022-09-21T06:37:20;76082.59;;;-145.25;83.42
54146;BME280;40052;49.422;7.738;2022-09-21T06:39:46;76084.59;;;-145.25;83.61
54146;BME280;40052;49.422;7.738;2022-09-21T06:42:11;76074.56;;;-145.25;83.35
54146;BME280;40052;49.422;7.738;2022-09-21T06:44:36;76060.53;;;-145.25;82.73
54146;BME280;40052;49.422;7.738;2022-09-21T06:47:02;76066.53;;;-145.25;82.75
54146;BME280;40052;49.422;7.738;2022-09-21T06:49:27;76070.56;;;-145.25;83.16
54146;BME280;40052;49.422;7.738;2022-09-21T06:51:57;76052.50;;;-145.25;83.13
54146;BME280;40052;49.422;7.738;2022-09-21T06:54:23;76048.50;;;-145.25;83.56
54146;BME280;40052;49.422;7.738;2022-09-21T06:56:50;76026.44;;;-145.25;83.19
54146;BME280;40052;49.422;7.738;2022-09-21T06:59:19;76034.47;;;-145.25;83.31
54146;BME280;40052;49.422;7.738;2022-09-21T07:01:44;76018.44;;;-145.25;83.84
54146;BME280;40052;49.422;7.738;2022-09-21T07:04:09;76010.41;;;-145.25;83.92
54146;BME280;40052;49.422;7.738;2022-09-21T07:06:35;76014.44;;;-145.25;84.00
54146;BME280;40052;49.422;7.738;2022-09-21T07:09:00;75996.38;;;-145.25;83.71
54146;BME280;40052;49.422;7.738;2022-09-21T07:11:27;75992.38;;;-145.25;83.73
54146;BME280;40052;49.422;7.738;2022-09-21T07:13:52;75974.34;;;-145.25;83.64
54146;BME280;40052;49.422;7.738;2022-09-21T07:16:17;75972.34;;;-145.25;84.08
54146;BME280;40052;49.422;7.738;2022-09-21T07:18:43;75962.31;;;-145.25;83.91
54146;BME280;40052;49.422;7.738;2022-09-21T07:21:11;75950.28;;;-145.25;84.21
54146;BME280;40052;49.422;7.738;2022-09-21T07:23:37;75932.25;;;-145.25;83.65
54146;BME280;40052;49.422;7.738;2022-09-21T07:26:10;75918.19;;;-145.25;83.16
54146;BME280;40052;49.422;7.738;2022-09-21T07:28:35;75904.16;;;-145.25;83.74
54146;BME280;40052;49.422;7.738;2022-09-21T07:31:09;75884.13;;;-145.25;83.33
54146;BME280;40052;49.422;7.738;2022-09-21T07:33:37;75860.06;;;-145.25;83.12
54146;BME280;40052;49.422;7.738;2022-09-21T07:36:03;75838.03;;;-145.25;82.81
54146;BME280;40052;49.422;7.738;2022-09-21T07:38:36;75817.97;;;-145.25;82.59
54146;BME280;40052;49.422;7.738;2022-09-21T07:41:06;75777.88;;;-145.25;81.84
54146;BME280;40052;49.422;7.738;2022-09-21T07:43:34;75761.84;;;-145.25;81.59
54146;BME280;40052;49.422;7.738;2022-09-21T07:45:59;75747.81;;;-145.25;81.25
54146;BME280;40052;49.422;7.738;2022-09-21T07:48:27;75727.78;;;-145.25;80.94
54146;BME280;40052;49.422;7.738;2022-09-21T07:51:03;75703.72;;;-145.25;80.65
54146;BME280;40052;49.422;7.738;2022-09-21T07:53:30;75667.63;;;-145.25;80.17
54146;BME280;40052;49.422;7.738;2022-09-21T07:56:03;75623.53;;;-145.25;79.15
54146;BME280;40052;49.422;7.738;2022-09-21T07:58:29;75603.50;;;-145.25;77.92
54146;BME280;40052;49.422;7.738;2022-09-21T08:01:13;75577.44;;;-145.25;76.78
54146;BME280;40052;49.422;7.738;2022-09-21T08:03:39;75561.41;;;-145.25;75.90
54146;BME280;40052;49.422;7.738;2022-09-21T08:06:04;75537.34;;;-145.25;75.43
54146;BME280;40052;49.422;7.738;2022-09-21T08:08:31;75509.28;;;-145.25;74.87
54146;BME280;40052;49.422;7.738;2022-09-21T08:11:01;75493.25;;;-145.25;74.39
54146;BME280;40052;49.422;7.738;2022-09-21T08:13:27;75471.22;;;-145.25;72.99
54146;BME280;40052;49.422;7.738;2022-09-21T08:16:00;75455.16;;;-145.25;72.55
54146;BME280;40052;49.422;7.738;2022-09-21T08:18:26;75423.09;;;-145.25;71.86
54146;BME280;40052;49.422;7.738;2022-09-21T08:20:55;75415.09;;;-145.25;71.23
54146;BME280;40052;49.422;7.738;2022-09-21T08:23:21;75385.03;;;-145.25;70.80
54146;BME280;40052;49.422;7.738;2022-09-21T08:25:46;75368.97;;;-145.25;70.15
54146;BME280;40052;49.422;7.738;2022-09-21T08:28:12;75362.97;;;-145.25;70.26
54146;BME280;40052;49.422;7.738;2022-09-21T08:30:40;75362.97;;;-145.25;70.19
54146;BME280;40052;49.422;7.738;2022-09-21T08:33:08;75350.94;;;-145.25;69.01
54146;BME280;40052;49.422;7.738;2022-09-21T08:35:34;75310.88;;;-145.25;68.35
54146;BME280;40052;49.422;7.738;2022-09-21T08:38:01;75298.84;;;-145.25;68.41
54146;BME280;40052;49.422;7.738;2022-09-21T08:40:26;75298.84;;;-145.25;68.03
54146;BME280;40052;49.422;7.738;2022-09-21T08:43:07;75248.72;;;-145.25;66.84
54146;BME280;40052;49.422;7.738;2022-09-21T08:45:39;75236.69;;;-145.25;66.28
54146;BME280;40052;49.422;7.738;2022-09-21T08:48:22;75220.66;;;-145.25;66.02
54146;BME280;40052;49.422;7.738;2022-09-21T08:50:59;75210.66;;;-145.25;65.18
54146;BME280;40052;49.422;7.738;2022-09-21T08:55:56;75140.50;;;-145.25;64.58
54146;BME280;40052;49.422;7.738;2022-09-21T09:01:09;75150.53;;;-145.25;63.92
54146;BME280;40052;49.422;7.738;2022-09-21T09:12:31;75064.34;;;-145.25;61.40
54146;BME280;40052;49.422;7.738;2022-09-21T09:15:14;75038.28;;;-145.25;59.96
54146;BME280;40052;49.422;7.738;2022-09-21T09:18:02;75044.31;;;-145.25;59.49
54146;BME280;40052;49.422;7.738;2022-09-21T09:20:37;75034.28;;;-145.25;59.78
54146;BME280;40052;49.422;7.738;2022-09-21T09:23:31;75004.22;;;-145.25;58.68
54146;BME280;40052;49.422;7.738;2022-09-21T09:26:02;75010.22;;;-145.25;59.00
54146;BME280;40052;49.422;7.738;2022-09-21T09:28:30;74974.16;;;-145.25;58.09
54146;BME280;40052;49.422;7.738;2022-09-21T09:31:11;74972.16;;;-145.25;56.60
54146;BME280;40052;49.422;7.738;2022-09-21T09:33:55;74938.09;;;-145.25;57.77
54146;BME280;40052;49.422;7.738;2022-09-21T09:36:29;74932.06;;;-145.25;56.07
54146;BME280;40052;49.422;7.738;2022-09-21T09:39:00;74898.00;;;-145.25;57.15
54146;BME280;40052;49.422;7.738;2022-09-21T09:44:32;74904.00;;;-145.25;54.72
54146;BME280;40052;49.422;7.738;2022-09-21T09:52:01;74829.88;;;-145.25;54.64
54146;BME280;40052;49.422;7.738;2022-09-21T09:54:28;74819.84;;;-145.25;54.34
54146;BME280;40052;49.422;7.738;2022-09-21T09:56:58;74793.78;;;-145.25;52.58
54146;BME280;40052;49.422;7.738;2022-09-21T10:02:01;74898.00;;;-145.25;55.29
54146;BME280;40052;49.422;7.738;2022-09-21T10:04:29;74926.06;;;-145.25;54.84
54146;BME280;40052;49.422;7.738;2022-09-21T10:06:55;74968.16;;;-145.25;55.17
54146;BME280;40052;49.422;7.738;2022-09-21T10:09:33;75014.25;;;-145.25;56.20
54146;BME280;40052;49.422;7.738;2022-09-21T10:12:22;74998.22;;;-145.25;58.33
54146;BME280;40052;49.422;7.738;2022-09-21T10:14:51;74976.16;;;-145.25;55.38
54146;BME280;40052;49.422;7.738;2022-09-21T10:17:20;75010.22;;;-145.25;56.19
54146;BME280;40052;49.422;7.738;2022-09-21T10:19:48;74996.19;;;-145.25;56.12
54146;BME280;40052;49.422;7.738;2022-09-21T10:22:18;74964.13;;;-145.25;56.12
54146;BME280;40052;49.422;7.738;2022-09-21T10:24:50;74889.97;;;-145.25;54.91
54146;BME280;40052;49.422;7.738;2022-09-21T10:27:27;74797.78;;;-145.25;52.95
54146;BME280;40052;49.422;7.738;2022-09-21T10:29:55;74837.88;;;-145.25;52.10
54146;BME280;40052;49.422;7.738;2022-09-21T10:32:27;74773.75;;;-145.25;50.88
54146;BME280;40052;49.422;7.738;2022-09-21T10:37:39;74685.56;;;-145.25;50.12
54146;BME280;40052;49.422;7.738;2022-09-21T10:42:45;74611.44;;;-145.25;48.67
54146;BME280;40052;49.422;7.738;2022-09-21T10:45:33;74589.38;;;-145.25;48.44
54146;BME280;40052;49.422;7.738;2022-09-21T10:48:15;74563.34;;;-145.25;47.91
54146;BME280;40052;49.422;7.738;2022-09-21T10:50:46;74567.34;;;-145.25;47.34
54146;BME280;40052;49.422;7.738;2022-09-21T10:53:30;74603.41;;;-145.25;48.04
54146;BME280;40052;49.422;7.738;2022-09-21T10:58:34;74549.31;;;-145.25;46.44
54146;BME280;40052;49.422;7.738;2022-09-21T11:01:12;74519.25;;;-145.25;46.24
54146;BME280;40052;49.422;7.738;2022-09-21T11:08:51;74489.19;;;-145.25;46.18
54146;BME280;40052;49.422;7.738;2022-09-21T11:11:42;74535.28;;;-145.25;45.11
54146;BME280;40052;49.422;7.738;2022-09-21T11:17:08;74407.03;;;-145.25;44.33
54146;BME280;40052;49.422;7.738;2022-09-21T11:19:42;74385.00;;;-145.25;44.09
54146;BME280;40052;49.422;7.738;2022-09-21T11:22:34;74362.94;;;-145.25;44.02
54146;BME280;40052;49.422;7.738;2022-09-21T11:27:53;74401.03;;;-145.25;43.08
54146;BME280;40052;49.422;7.738;2022-09-21T11:30:21;74427.06;;;-145.25;43.82
54146;BME280;40052;49.422;7.738;2022-09-21T11:36:20;74461.13;;;-145.25;44.28
54146;BME280;40052;49.422;7.738;2022-09-21T11:38:59;74399.00;;;-145.25;42.79
54146;BME280;40052;49.422;7.738;2022-09-21T11:52:09;74250.72;;;-145.25;40.12
54146;BME280;40052;49.422;7.738;2022-09-21T11:57:30;74206.66;;;-145.25;39.43
54146;BME280;40052;49.422;7.738;2022-09-21T12:05:30;74403.03;;;-145.25;42.01
54146;BME280;40052;49.422;7.738;2022-09-21T12:08:36;74300.84;;;-145.25;41.06
54146;BME280;40052;49.422;7.738;2022-09-21T12:11:57;74238.72;;;-145.25;40.58
54146;BME280;40052;49.422;7.738;2022-09-21T12:20:05;74228.69;;;-145.25;40.24
54146;BME280;40052;49.422;7.738;2022-09-21T12:22:38;74296.81;;;-145.25;40.39
54146;BME280;40052;49.422;7.738;2022-09-21T12:30:18;74312.84;;;-145.25;40.47
54146;BME280;40052;49.422;7.738;2022-09-21T12:35:53;74206.66;;;-145.25;39.50
54146;BME280;40052;49.422;7.738;2022-09-21T12:38:26;74156.56;;;-145.25;38.97
54146;BME280;40052;49.422;7.738;2022-09-21T12:41:10;74128.50;;;-145.25;37.34
54146;BME280;40052;49.422;7.738;2022-09-21T12:46:59;74040.34;;;-145.25;37.44
54146;BME280;40052;49.422;7.738;2022-09-21T12:49:40;74032.34;;;-145.25;37.08
54146;BME280;40052;49.422;7.738;2022-09-21T12:52:07;74008.28;;;-145.25;35.79
54146;BME280;40052;49.422;7.738;2022-09-21T12:54:39;74044.34;;;-145.25;36.51
54146;BME280;40052;49.422;7.738;2022-09-21T13:02:34;74046.34;;;-145.25;36.45
54146;BME280;40052;49.422;7.738;2022-09-21T13:12:55;74068.41;;;-145.25;37.27
54146;BME280;40052;49.422;7.738;2022-09-21T13:15:26;74158.56;;;-145.25;37.20
54146;BME280;40052;49.422;7.738;2022-09-21T13:18:44;74222.69;;;-145.25;37.17
54146;BME280;40052;49.422;7.738;2022-09-21T13:20:46;74112.47;;;-145.25;36.47
54146;BME280;40052;49.422;7.738;2022-09-21T13:23:16;74098.44;;;-145.25;36.63
54146;BME280;40052;49.422;7.738;2022-09-21T13:25:47;74150.53;;;-145.25;37.64
54146;BME280;40052;49.422;7.738;2022-09-21T13:28:18;74300.84;;;-145.25;38.86
54146;BME280;40052;49.422;7.738;2022-09-21T13:33:27;74300.84;;;-145.25;36.90
54146;BME280;40052;49.422;7.738;2022-09-21T13:39:01;74298.81;;;-145.25;37.73
54146;BME280;40052;49.422;7.738;2022-09-21T13:41:27;74272.78;;;-145.25;38.30
54146;BME280;40052;49.422;7.738;2022-09-21T13:57:35;73994.25;;;-145.25;36.81
54146;BME280;40052;49.422;7.738;2022-09-21T14:02:44;74120.50;;;-145.25;37.38
54146;BME280;40052;49.422;7.738;2022-09-21T14:08:05;74292.81;;;-145.25;40.15
54146;BME280;40052;49.422;7.738;2022-09-21T14:10:34;74332.88;;;-145.25;40.04
54146;BME280;40052;49.422;7.738;2022-09-21T14:13:03;74146.53;;;-145.25;38.38
54146;BME280;40052;49.422;7.738;2022-09-21T14:15:37;74066.41;;;-145.25;37.23
54146;BME280;40052;49.422;7.738;2022-09-21T14:20:36;73990.25;;;-145.25;36.17
54146;BME280;40052;49.422;7.738;2022-09-21T14:23:26;74008.28;;;-145.25;35.42
54146;BME280;40052;49.422;7.738;2022-09-21T14:26:00;73968.22;;;-145.25;35.94
54146;BME280;40052;49.422;7.738;2022-09-21T14:28:40;74006.28;;;-145.25;35.07
54146;BME280;40052;49.422;7.738;2022-09-21T14:31:17;74084.44;;;-145.25;36.45
54146;BME280;40052;49.422;7.738;2022-09-21T14:33:48;74114.47;;;-145.25;37.31
54146;BME280;40052;49.422;7.738;2022-09-21T14:36:27;74000.28;;;-145.25;35.82
54146;BME280;40052;49.422;7.738;2022-09-21T14:39:02;73944.16;;;-145.25;35.67
54146;BME280;40052;49.422;7.738;2022-09-21T14:41:35;73962.22;;;-145.25;35.81
54146;BME280;40052;49.422;7.738;2022-09-21T14:44:02;73990.25;;;-145.25;36.35
54146;BME280;40052;49.422;7.738;2022-09-21T14:54:44;74158.56;;;-145.25;39.33
54146;BME280;40052;49.422;7.738;2022-09-21T15:02:15;74378.97;;;-145.25;40.97
54146;BME280;40052;49.422;7.738;2022-09-21T15:10:30;74483.19;;;-145.25;42.60
54146;BME280;40052;49.422;7.738;2022-09-21T15:13:24;74513.25;;;-145.25;42.41
54146;BME280;40052;49.422;7.738;2022-09-21T15:21:45;74509.22;;;-145.25;43.48
54146;BME280;40052;49.422;7.738;2022-09-21T15:26:54;74477.16;;;-145.25;42.47
54146;BME280;40052;49.422;7.738;2022-09-21T15:29:30;74499.22;;;-145.25;43.19
54146;BME280;40052;49.422;7.738;2022-09-21T15:31:57;74495.19;;;-145.25;43.30
54146;BME280;40052;49.422;7.738;2022-09-21T15:34:23;74481.19;;;-145.25;43.33
54146;BME280;40052;49.422;7.738;2022-09-21T15:36:49;74455.13;;;-145.25;43.26
54146;BME280;40052;49.422;7.738;2022-09-21T15:42:04;74393.00;;;-145.25;41.81
54146;BME280;40052;49.422;7.738;2022-09-21T15:44:34;74429.06;;;-145.25;42.24
54146;BME280;40052;49.422;7.738;2022-09-21T15:47:07;74433.09;;;-145.25;42.23
54146;BME280;40052;49.422;7.738;2022-09-21T15:49:40;74421.06;;;-145.25;42.63
54146;BME280;40052;49.422;7.738;2022-09-21T15:52:29;74397.00;;;-145.25;42.15
54146;BME280;40052;49.422;7.738;2022-09-21T15:54:58;74447.09;;;-145.25;41.92
54146;BME280;40052;49.422;7.738;2022-09-21T15:57:36;74493.19;;;-145.25;42.33
54146;BME280;40052;49.422;7.738;2022-09-21T16:00:28;74451.13;;;-145.25;42.47
54146;BME280;40052;49.422;7.738;2022-09-21T16:03:03;74397.00;;;-145.25;41.21
54146;BME280;40052;49.422;7.738;2022-09-21T16:05:32;74256.75;;;-145.25;39.98
54146;BME280;40052;49.422;7.738;2022-09-21T16:08:13;74188.63;;;-145.25;39.33
54146;BME280;40052;49.422;7.738;2022-09-21T16:10:41;74146.53;;;-145.25;39.15
54146;BME280;40052;49.422;7.738;2022-09-21T16:16:07;74312.84;;;-145.25;40.69
54146;BME280;40052;49.422;7.738;2022-09-21T16:18:47;74366.94;;;-145.25;41.92
54146;BME280;40052;49.422;7.738;2022-09-21T16:21:34;74435.09;;;-145.25;42.72
54146;BME280;40052;49.422;7.738;2022-09-21T16:24:20;74457.13;;;-145.25;43.35
54146;BME280;40052;49.422;7.738;2022-09-21T16:27:01;74441.09;;;-145.25;43.87